Time;durP1;ratioP1;P1;durP2;ratioP2;P2;SDS_P1;SDS_P2;PMS_P1;PMS_P2;Temp;Humidity;BMP_temperature;BMP_pressure;BME280_temperature;BME280_humidity;BME280_pressure;Samples;Min_cycle;Max_cycle;Signal;HPM_P1;HPM_P2
2021/05/29 00:00:53;;;;;;;4.82;4.43;;;;;;;;;;5029851;28;20524;-77
2021/05/29 00:03:20;;;;;;;9.68;5.10;;;;;;;;;;5019791;28;20205;-78
2021/05/29 00:05:46;;;;;;;6.47;5.00;;;;;;;;;;5035400;28;20231;-78
2021/05/29 00:08:12;;;;;;;5.03;4.63;;;;;;;;;;5022705;28;20185;-77
2021/05/29 00:10:40;;;;;;;5.32;4.82;;;;;;;;;;5021425;28;20222;-78
2021/05/29 00:13:06;;;;;;;6.35;4.63;;;;;;;;;;5019850;28;20189;-77
2021/05/29 00:15:33;;;;;;;4.78;4.35;;;;;;;;;;5019814;28;20182;-75
2021/05/29 00:17:59;;;;;;;5.80;4.38;;;;;;;;;;5019920;28;20182;-77
2021/05/29 00:20:25;;;;;;;6.60;4.70;;;;;;;;;;5021055;28;20635;-78
2021/05/29 00:22:51;;;;;;;4.30;3.97;;;;;;;;;;5038146;28;20195;-77
2021/05/29 00:25:17;;;;;;;4.25;3.85;;;;;;;;;;5019784;28;20336;-77
2021/05/29 00:27:43;;;;;;;6.60;4.35;;;;;;;;;;5020286;28;20182;-78
2021/05/29 00:30:11;;;;;;;4.85;4.05;;;;;;;;;;5034832;28;20190;-78
2021/05/29 00:32:37;;;;;;;5.78;4.65;;;;;;;;;;5019330;28;20291;-77
2021/05/29 00:35:03;;;;;;;5.13;4.65;;;;;;;;;;5038366;28;20184;-77
2021/05/29 00:37:29;;;;;;;4.47;3.97;;;;;;;;;;5020392;28;20656;-78
2021/05/29 00:39:55;;;;;;;7.00;4.77;;;;;;;;;;5019860;28;20195;-77
2021/05/29 00:42:21;;;;;;;7.73;5.00;;;;;;;;;;5020375;28;20476;-78
2021/05/29 00:44:51;;;;;;;5.30;4.80;;;;;;;;;;5018930;28;20488;-78
2021/05/29 00:47:21;;;;;;;5.15;4.65;;;;;;;;;;5020615;28;20421;-77
2021/05/29 00:49:47;;;;;;;5.72;5.22;;;;;;;;;;5023613;28;20174;-78
2021/05/29 00:52:13;;;;;;;5.45;4.32;;;;;;;;;;5020097;28;20182;-77
2021/05/29 00:54:39;;;;;;;5.00;4.47;;;;;;;;;;5034314;28;20186;-78
2021/05/29 00:57:05;;;;;;;6.32;4.57;;;;;;;;;;5019837;28;20202;-78
2021/05/29 00:59:32;;;;;;;7.35;4.32;;;;;;;;;;5019706;28;20182;-78
2021/05/29 01:01:58;;;;;;;5.85;4.68;;;;;;;;;;5024140;28;20225;-77
2021/05/29 01:04:24;;;;;;;7.05;4.68;;;;;;;;;;5022931;28;20659;-78
2021/05/29 01:06:50;;;;;;;9.63;5.03;;;;;;;;;;5023061;28;20220;-78
2021/05/29 01:09:16;;;;;;;4.90;4.40;;;;;;;;;;5022813;28;20434;-78
2021/05/29 01:11:42;;;;;;;5.22;4.72;;;;;;;;;;5038338;28;20481;-78
2021/05/29 01:14:08;;;;;;;10.63;4.80;;;;;;;;;;5025049;28;20186;-78
2021/05/29 01:19:03;;;;;;;7.15;5.07;;;;;;;;;;5022710;28;20190;-77
2021/05/29 01:21:29;;;;;;;5.60;4.80;;;;;;;;;;5022998;28;20198;-77
2021/05/29 01:23:55;;;;;;;6.10;5.25;;;;;;;;;;5038064;28;20178;-78
2021/05/29 01:26:21;;;;;;;5.25;4.75;;;;;;;;;;5024094;28;20174;-77
2021/05/29 01:28:53;;;;;;;6.70;5.53;;;;;;;;;;5025399;28;20179;-78
2021/05/29 01:31:19;;;;;;;5.75;5.18;;;;;;;;;;5022711;28;20181;-78
2021/05/29 01:33:45;;;;;;;10.75;5.88;;;;;;;;;;5022737;28;20265;-78
2021/05/29 01:36:12;;;;;;;6.45;5.43;;;;;;;;;;5037601;28;20186;-77
2021/05/29 01:38:39;;;;;;;6.47;5.45;;;;;;;;;;5022258;28;20198;-77
2021/05/29 01:41:07;;;;;;;6.70;6.07;;;;;;;;;;5040207;28;20174;-77
2021/05/29 01:43:40;;;;;;;8.43;5.82;;;;;;;;;;5023080;28;20262;-77
2021/05/29 01:46:07;;;;;;;8.38;6.35;;;;;;;;;;5022323;28;20269;-78
2021/05/29 01:48:37;;;;;;;6.00;5.40;;;;;;;;;;5022545;28;20217;-77
2021/05/29 01:51:03;;;;;;;5.90;4.97;;;;;;;;;;5011194;28;20209;-78
2021/05/29 01:53:29;;;;;;;7.40;5.57;;;;;;;;;;5038787;28;20222;-77
2021/05/29 01:55:55;;;;;;;5.43;4.90;;;;;;;;;;5040562;28;20245;-78
2021/05/29 01:58:21;;;;;;;7.45;4.95;;;;;;;;;;5021787;28;20527;-78
2021/05/29 02:00:47;;;;;;;4.97;4.57;;;;;;;;;;5022000;28;20191;-78
2021/05/29 02:03:13;;;;;;;5.65;5.07;;;;;;;;;;5022048;28;20202;-78
2021/05/29 02:05:40;;;;;;;6.07;5.22;;;;;;;;;;5037400;28;20611;-78
2021/05/29 02:08:07;;;;;;;5.88;4.93;;;;;;;;;;5024352;28;20175;-77
2021/05/29 02:10:33;;;;;;;6.65;5.15;;;;;;;;;;5038445;28;20218;-78
2021/05/29 02:13:01;;;;;;;5.65;5.15;;;;;;;;;;5021206;28;20191;-77
2021/05/29 02:15:29;;;;;;;6.95;5.50;;;;;;;;;;5019328;28;20229;-78
2021/05/29 02:17:55;;;;;;;6.63;4.72;;;;;;;;;;5022058;28;20184;-77
2021/05/29 02:20:40;;;;;;;4.63;4.20;;;;;;;;;;5022829;28;20257;-78
2021/05/29 02:23:07;;;;;;;4.70;4.10;;;;;;;;;;5024407;28;20194;-78
2021/05/29 02:25:33;;;;;;;4.43;4.03;;;;;;;;;;5022225;28;20190;-78
2021/05/29 02:27:59;;;;;;;4.20;3.90;;;;;;;;;;5021108;28;20186;-77
2021/05/29 02:30:26;;;;;;;6.30;4.82;;;;;;;;;;5021008;28;20194;-78
2021/05/29 02:32:52;;;;;;;4.68;4.28;;;;;;;;;;5021602;28;20668;-78
2021/05/29 02:35:18;;;;;;;5.75;4.60;;;;;;;;;;5022566;28;20911;-77
2021/05/29 02:37:44;;;;;;;6.05;4.15;;;;;;;;;;5025052;28;20198;-77
2021/05/29 02:40:11;;;;;;;6.93;4.10;;;;;;;;;;5021433;28;20554;-78
2021/05/29 02:42:37;;;;;;;5.40;4.90;;;;;;;;;;5032026;28;20211;-78
2021/05/29 02:45:03;;;;;;;4.30;3.67;;;;;;;;;;5035082;28;20190;-78
2021/05/29 02:47:29;;;;;;;8.80;4.70;;;;;;;;;;5021632;28;20178;-77
2021/05/29 02:49:55;;;;;;;4.80;4.10;;;;;;;;;;5024617;28;20603;-77
2021/05/29 02:52:21;;;;;;;5.30;4.80;;;;;;;;;;5034168;28;20441;-78
2021/05/29 02:54:47;;;;;;;5.15;4.75;;;;;;;;;;5030790;28;20193;-77
2021/05/29 02:57:14;;;;;;;4.93;4.43;;;;;;;;;;5020240;28;20224;-77
2021/05/29 02:59:40;;;;;;;5.43;4.45;;;;;;;;;;5035986;28;20581;-78
2021/05/29 03:02:07;;;;;;;6.43;4.75;;;;;;;;;;5023890;28;20218;-77
2021/05/29 03:04:33;;;;;;;8.80;4.85;;;;;;;;;;5022173;28;20171;-78
2021/05/29 03:06:59;;;;;;;5.00;4.25;;;;;;;;;;5020706;28;20313;-78
2021/05/29 03:09:25;;;;;;;6.28;4.80;;;;;;;;;;5021150;28;20213;-78
2021/05/29 03:11:51;;;;;;;4.70;4.30;;;;;;;;;;5020678;28;20307;-78
2021/05/29 03:14:17;;;;;;;5.97;4.10;;;;;;;;;;5022424;28;20265;-77
2021/05/29 03:16:43;;;;;;;5.30;4.55;;;;;;;;;;5022515;28;20233;-78
2021/05/29 03:19:09;;;;;;;5.18;4.63;;;;;;;;;;5020657;28;20244;-78
2021/05/29 03:21:35;;;;;;;5.07;4.57;;;;;;;;;;5019254;28;20222;-78
2021/05/29 03:24:01;;;;;;;5.15;4.65;;;;;;;;;;5036143;28;20178;-78
2021/05/29 03:26:27;;;;;;;5.03;4.40;;;;;;;;;;5020981;28;20267;-76
2021/05/29 03:28:53;;;;;;;5.45;4.50;;;;;;;;;;5024231;28;20845;-78
2021/05/29 03:31:19;;;;;;;6.75;5.13;;;;;;;;;;5020742;28;20206;-78
2021/05/29 03:33:46;;;;;;;5.90;4.82;;;;;;;;;;5020282;28;20189;-77
2021/05/29 03:36:12;;;;;;;6.35;4.15;;;;;;;;;;5020331;28;20210;-78
2021/05/29 03:38:38;;;;;;;6.13;4.57;;;;;;;;;;5021170;28;20200;-78
2021/05/29 03:41:04;;;;;;;6.05;4.70;;;;;;;;;;5023554;28;20178;-78
2021/05/29 03:43:30;;;;;;;4.55;4.15;;;;;;;;;;5020944;28;20233;-78
2021/05/29 03:45:56;;;;;;;5.07;4.65;;;;;;;;;;5020463;28;20186;-77
2021/05/29 03:48:22;;;;;;;5.03;4.13;;;;;;;;;;5035146;28;20603;-77
2021/05/29 03:50:48;;;;;;;5.50;4.75;;;;;;;;;;5020325;28;20466;-78
2021/05/29 03:53:14;;;;;;;7.97;4.95;;;;;;;;;;5022769;28;20189;-77
2021/05/29 03:55:40;;;;;;;6.00;5.40;;;;;;;;;;5036017;28;20174;-78
2021/05/29 03:58:06;;;;;;;8.30;5.30;;;;;;;;;;5020077;28;20463;-78
2021/05/29 04:00:32;;;;;;;4.55;4.03;;;;;;;;;;5031596;28;20195;-77
2021/05/29 04:02:59;;;;;;;5.95;5.15;;;;;;;;;;5018812;28;20256;-77
2021/05/29 04:05:25;;;;;;;4.85;4.38;;;;;;;;;;5036541;28;20282;-78
2021/05/29 04:07:51;;;;;;;7.35;4.97;;;;;;;;;;5022281;28;20183;-77
2021/05/29 04:10:19;;;;;;;5.13;4.65;;;;;;;;;;5031726;28;20226;-77
2021/05/29 04:12:45;;;;;;;5.10;4.65;;;;;;;;;;5019928;28;20178;-77
2021/05/29 04:15:12;;;;;;;5.03;4.57;;;;;;;;;;5036750;28;20301;-77
2021/05/29 04:17:38;;;;;;;6.47;4.75;;;;;;;;;;5020227;28;20183;-78
2021/05/29 04:20:05;;;;;;;4.90;4.32;;;;;;;;;;5023011;28;20206;-77
2021/05/29 04:22:31;;;;;;;4.43;3.88;;;;;;;;;;5021012;28;20198;-77
2021/05/29 04:24:57;;;;;;;5.57;4.40;;;;;;;;;;5019445;28;20182;-78
2021/05/29 04:27:23;;;;;;;6.20;5.10;;;;;;;;;;5033953;28;20256;-77
2021/05/29 04:29:49;;;;;;;10.25;4.68;;;;;;;;;;5019877;28;20187;-77
2021/05/29 04:32:15;;;;;;;6.72;4.60;;;;;;;;;;5022053;28;20186;-77
2021/05/29 04:34:41;;;;;;;5.47;4.97;;;;;;;;;;5036804;28;20170;-78
2021/05/29 04:37:07;;;;;;;6.47;5.20;;;;;;;;;;5020552;28;20182;-77
2021/05/29 04:39:33;;;;;;;5.00;4.50;;;;;;;;;;5035088;28;20222;-77
2021/05/29 04:41:59;;;;;;;5.85;5.25;;;;;;;;;;5039211;28;20464;-77
2021/05/29 04:44:25;;;;;;;4.97;4.28;;;;;;;;;;5024699;28;20195;-76
2021/05/29 04:46:52;;;;;;;6.35;5.60;;;;;;;;;;5025206;28;20183;-78
2021/05/29 04:49:19;;;;;;;7.03;5.05;;;;;;;;;;5023295;28;20179;-77
2021/05/29 04:51:46;;;;;;;5.78;4.97;;;;;;;;;;5023468;28;20178;-77
2021/05/29 04:54:12;;;;;;;9.05;4.88;;;;;;;;;;5023279;28;20187;-78
2021/05/29 04:56:38;;;;;;;6.05;5.22;;;;;;;;;;5022300;28;20733;-77
2021/05/29 04:59:04;;;;;;;7.38;5.82;;;;;;;;;;5025559;28;20521;-77
2021/05/29 05:01:31;;;;;;;5.03;4.32;;;;;;;;;;5024808;28;20216;-78
2021/05/29 05:04:00;;;;;;;8.63;5.45;;;;;;;;;;5025288;28;20170;-78
2021/05/29 05:06:27;;;;;;;10.55;5.65;;;;;;;;;;5023718;28;20540;-78
2021/05/29 05:08:53;;;;;;;5.78;5.28;;;;;;;;;;5022470;28;20186;-78
2021/05/29 05:11:19;;;;;;;6.95;5.68;;;;;;;;;;5024523;28;20245;-77
2021/05/29 05:13:45;;;;;;;6.60;6.00;;;;;;;;;;5024073;28;20220;-77
2021/05/29 05:16:11;;;;;;;7.53;5.50;;;;;;;;;;5032102;28;20680;-77
2021/05/29 05:18:37;;;;;;;6.80;5.75;;;;;;;;;;5025801;28;20185;-77
2021/05/29 05:21:03;;;;;;;5.38;4.88;;;;;;;;;;5022109;28;20210;-77
2021/05/29 05:23:29;;;;;;;8.90;6.90;;;;;;;;;;5019940;28;20675;-77
2021/05/29 05:25:55;;;;;;;5.30;4.80;;;;;;;;;;5026977;28;20768;-77
2021/05/29 05:28:26;;;;;;;15.63;6.70;;;;;;;;;;5022617;28;20448;-78
2021/05/29 05:30:52;;;;;;;7.32;6.55;;;;;;;;;;5024136;28;20440;-78
2021/05/29 05:33:19;;;;;;;7.10;6.40;;;;;;;;;;5024543;28;20297;-78
2021/05/29 05:35:45;;;;;;;8.15;6.10;;;;;;;;;;5021611;28;20665;-78
2021/05/29 05:38:11;;;;;;;6.57;5.87;;;;;;;;;;5039850;28;20186;-78
2021/05/29 05:40:37;;;;;;;6.55;5.60;;;;;;;;;;5038966;28;20456;-78
2021/05/29 05:43:03;;;;;;;8.55;5.45;;;;;;;;;;5022456;28;20695;-78
2021/05/29 05:45:29;;;;;;;8.83;6.77;;;;;;;;;;5022614;28;20201;-77
2021/05/29 05:47:55;;;;;;;11.60;6.43;;;;;;;;;;5023160;28;20441;-77
2021/05/29 05:50:22;;;;;;;9.23;7.05;;;;;;;;;;5022486;28;20201;-77
2021/05/29 05:52:48;;;;;;;10.95;6.65;;;;;;;;;;5024956;28;20166;-77
2021/05/29 05:55:14;;;;;;;11.55;7.60;;;;;;;;;;5021827;28;20186;-77
2021/05/29 05:57:41;;;;;;;8.73;7.32;;;;;;;;;;5022027;28;20186;-78
2021/05/29 06:00:08;;;;;;;11.13;7.63;;;;;;;;;;5021820;28;20178;-78
2021/05/29 06:02:34;;;;;;;9.60;7.90;;;;;;;;;;5037261;28;20209;-77
2021/05/29 06:05:00;;;;;;;8.02;6.80;;;;;;;;;;5030110;28;20243;-77
2021/05/29 06:07:26;;;;;;;10.17;8.10;;;;;;;;;;5031388;28;20190;-77
2021/05/29 06:09:52;;;;;;;9.18;8.27;;;;;;;;;;5021927;28;20472;-78
2021/05/29 06:12:18;;;;;;;9.90;7.38;;;;;;;;;;5021352;28;20189;-77
2021/05/29 06:20:14;;;;;;;10.43;7.70;;;;;;;;;;5024478;28;20202;-77
2021/05/29 06:22:40;;;;;;;9.93;8.68;;;;;;;;;;5022816;28;20217;-77
2021/05/29 06:25:08;;;;;;;14.48;9.60;;;;;;;;;;5023351;28;20242;-76
2021/05/29 06:27:34;;;;;;;10.30;7.97;;;;;;;;;;5021399;28;20244;-76
2021/05/29 06:30:00;;;;;;;11.35;8.18;;;;;;;;;;5021489;28;20189;-78
2021/05/29 06:32:26;;;;;;;11.25;9.18;;;;;;;;;;5038762;28;20190;-77
2021/05/29 06:34:52;;;;;;;12.85;8.57;;;;;;;;;;5023276;28;20189;-77
2021/05/29 06:37:18;;;;;;;8.90;7.23;;;;;;;;;;5021042;28;20194;-76
2021/05/29 06:39:45;;;;;;;9.43;8.43;;;;;;;;;;5037455;28;20449;-76
2021/05/29 06:42:12;;;;;;;10.82;9.00;;;;;;;;;;5019545;28;20200;-77
2021/05/29 06:44:38;;;;;;;12.15;9.85;;;;;;;;;;5036867;28;20184;-77
2021/05/29 06:47:05;;;;;;;12.80;8.85;;;;;;;;;;5014704;28;20179;-77
2021/05/29 06:49:31;;;;;;;11.95;9.70;;;;;;;;;;5020757;28;20166;-75
2021/05/29 06:52:12;;;;;;;11.95;9.20;;;;;;;;;;5036666;28;20192;-77
2021/05/29 06:59:53;;;;;;;11.75;8.85;;;;;;;;;;5015147;28;20226;-76
2021/05/29 07:02:19;;;;;;;13.32;10.20;;;;;;;;;;5020583;28;20208;-74
2021/05/29 07:04:45;;;;;;;10.17;8.93;;;;;;;;;;5024131;28;20205;-75
2021/05/29 07:07:10;;;;;;;12.55;9.68;;;;;;;;;;5021890;28;20540;-75
2021/05/29 07:09:36;;;;;;;11.80;9.63;;;;;;;;;;5017847;28;20182;-75
2021/05/29 07:12:03;;;;;;;12.07;8.40;;;;;;;;;;5037101;28;20230;-74
2021/05/29 07:14:29;;;;;;;11.25;9.10;;;;;;;;;;5037547;28;20448;-75
2021/05/29 07:16:56;;;;;;;9.77;8.57;;;;;;;;;;5038818;28;20186;-73
2021/05/29 07:19:23;;;;;;;11.27;8.50;;;;;;;;;;5019297;28;20440;-74
2021/05/29 07:21:49;;;;;;;15.98;9.45;;;;;;;;;;5022929;28;20206;-75
2021/05/29 07:24:16;;;;;;;12.32;8.68;;;;;;;;;;5030744;28;20181;-75
2021/05/29 07:26:42;;;;;;;13.30;9.90;;;;;;;;;;5022276;28;20643;-75
2021/05/29 07:29:08;;;;;;;13.95;9.25;;;;;;;;;;5022701;28;20613;-75
2021/05/29 07:31:34;;;;;;;10.15;8.52;;;;;;;;;;5022947;28;20184;-75
2021/05/29 07:34:00;;;;;;;8.63;7.70;;;;;;;;;;5012008;28;20185;-76
2021/05/29 07:36:26;;;;;;;10.52;8.73;;;;;;;;;;5012221;28;20205;-76
2021/05/29 07:38:52;;;;;;;12.30;9.10;;;;;;;;;;5021575;28;20182;-75
2021/05/29 07:41:20;;;;;;;12.38;8.65;;;;;;;;;;5022552;28;20252;-76
2021/05/29 07:43:46;;;;;;;10.00;8.80;;;;;;;;;;5022010;28;20179;-76
2021/05/29 07:46:12;;;;;;;9.32;8.05;;;;;;;;;;5035720;28;20305;-75
2021/05/29 07:48:39;;;;;;;11.88;9.50;;;;;;;;;;5017353;28;20185;-76
2021/05/29 07:51:05;;;;;;;9.93;8.07;;;;;;;;;;5034959;28;20224;-76
2021/05/29 07:53:32;;;;;;;11.88;7.65;;;;;;;;;;5020890;28;20189;-75
2021/05/29 07:55:59;;;;;;;10.38;9.25;;;;;;;;;;5018983;28;20190;-76
2021/05/29 07:58:25;;;;;;;11.25;8.43;;;;;;;;;;5016319;28;20220;-75
2021/05/29 08:00:52;;;;;;;10.65;9.27;;;;;;;;;;5019363;28;20277;-76
2021/05/29 08:03:22;;;;;;;10.77;8.40;;;;;;;;;;5018701;28;20847;-75
2021/05/29 08:05:50;;;;;;;11.70;8.30;;;;;;;;;;5018008;28;20174;-75
2021/05/29 08:08:16;;;;;;;13.93;10.30;;;;;;;;;;5010769;28;20253;-75
2021/05/29 08:10:43;;;;;;;9.93;8.93;;;;;;;;;;5036716;28;20210;-75
2021/05/29 08:13:09;;;;;;;11.70;8.73;;;;;;;;;;5023060;28;20237;-76
2021/05/29 08:15:35;;;;;;;10.57;8.38;;;;;;;;;;5020829;28;20190;-75
2021/05/29 08:18:01;;;;;;;11.38;8.85;;;;;;;;;;5032971;28;20957;-75
2021/05/29 08:20:28;;;;;;;12.02;9.35;;;;;;;;;;5015330;28;20441;-76
2021/05/29 08:22:54;;;;;;;13.18;10.23;;;;;;;;;;5026671;28;20201;-77
2021/05/29 08:25:21;;;;;;;12.23;9.65;;;;;;;;;;5037993;28;20178;-75
2021/05/29 08:27:47;;;;;;;11.57;8.77;;;;;;;;;;5020310;28;20239;-75
2021/05/29 08:30:13;;;;;;;9.60;8.00;;;;;;;;;;5034078;28;20198;-75
2021/05/29 08:32:39;;;;;;;12.40;9.00;;;;;;;;;;5039380;28;20249;-75
2021/05/29 08:35:06;;;;;;;13.90;10.20;;;;;;;;;;5039528;28;20186;-75
2021/05/29 08:37:32;;;;;;;11.18;9.10;;;;;;;;;;5023020;28;20216;-75
2021/05/29 08:39:58;;;;;;;10.80;9.10;;;;;;;;;;5022140;28;20187;-75
2021/05/29 08:42:25;;;;;;;11.82;8.95;;;;;;;;;;5019819;28;20480;-76
2021/05/29 08:44:51;;;;;;;12.05;9.65;;;;;;;;;;5036984;28;20195;-75
2021/05/29 08:47:19;;;;;;;11.18;9.60;;;;;;;;;;5022474;28;20238;-75
2021/05/29 08:49:45;;;;;;;14.85;10.15;;;;;;;;;;5024622;28;20440;-74
2021/05/29 08:52:12;;;;;;;12.95;9.70;;;;;;;;;;5024117;28;20245;-75
2021/05/29 08:54:38;;;;;;;11.35;9.30;;;;;;;;;;5034160;28;20183;-74
2021/05/29 08:57:05;;;;;;;11.25;9.23;;;;;;;;;;5022489;28;20190;-74
2021/05/29 08:59:31;;;;;;;10.52;8.68;;;;;;;;;;5017768;28;20277;-75
2021/05/29 09:02:01;;;;;;;15.35;8.55;;;;;;;;;;5027042;28;20233;-75
2021/05/29 09:04:27;;;;;;;13.60;9.68;;;;;;;;;;5038562;28;20171;-75
2021/05/29 09:06:54;;;;;;;11.20;7.73;;;;;;;;;;5022987;28;20195;-75
2021/05/29 09:09:20;;;;;;;11.93;8.60;;;;;;;;;;5022840;28;20443;-75
2021/05/29 09:12:03;;;;;;;10.23;7.40;;;;;;;;;;5024737;28;20230;-75
2021/05/29 09:14:31;;;;;;;9.32;7.22;;;;;;;;;;5038366;28;20456;-75
2021/05/29 09:17:18;;;;;;;8.20;6.18;;;;;;;;;;5041073;28;20640;-75
2021/05/29 09:19:55;;;;;;;6.55;5.95;;;;;;;;;;5024567;28;20171;-76
2021/05/29 09:22:24;;;;;;;5.22;4.25;;;;;;;;;;5032613;28;20202;-75
2021/05/29 09:25:05;;;;;;;4.75;4.10;;;;;;;;;;5022979;28;20189;-75
2021/05/29 09:27:33;;;;;;;5.95;2.97;;;;;;;;;;5034177;28;20191;-75
2021/05/29 09:29:59;;;;;;;3.63;2.90;;;;;;;;;;5036426;28;20274;-75
2021/05/29 09:32:25;;;;;;;3.97;3.43;;;;;;;;;;5023958;28;20183;-77
2021/05/29 09:34:56;;;;;;;3.03;2.73;;;;;;;;;;5041321;28;20497;-77
2021/05/29 09:37:26;;;;;;;2.85;2.65;;;;;;;;;;5037662;28;20591;-76
2021/05/29 09:39:56;;;;;;;2.60;2.40;;;;;;;;;;5022647;28;20283;-76
2021/05/29 09:42:42;;;;;;;6.85;2.72;;;;;;;;;;5022149;28;20211;-76
2021/05/29 09:45:28;;;;;;;2.80;2.55;;;;;;;;;;5022147;28;20190;-75
2021/05/29 09:48:13;;;;;;;2.70;2.20;;;;;;;;;;5024148;28;20186;-76
2021/05/29 09:50:57;;;;;;;6.47;2.80;;;;;;;;;;5018392;28;20193;-75
2021/05/29 09:53:27;;;;;;;4.40;2.22;;;;;;;;;;5023810;28;20286;-75
2021/05/29 09:55:53;;;;;;;2.90;2.70;;;;;;;;;;5025305;28;20168;-75
2021/05/29 09:58:19;;;;;;;3.92;2.28;;;;;;;;;;5023515;28;20214;-78
2021/05/29 10:00:50;;;;;;;2.45;1.85;;;;;;;;;;5022246;28;20510;-75
2021/05/29 10:03:17;;;;;;;2.03;1.88;;;;;;;;;;5022271;28;20300;-76
2021/05/29 10:05:48;;;;;;;2.25;2.15;;;;;;;;;;5021832;28;20171;-76
2021/05/29 10:08:15;;;;;;;2.47;2.28;;;;;;;;;;5039595;28;20174;-76
2021/05/29 10:10:41;;;;;;;2.08;1.85;;;;;;;;;;5023196;28;20218;-76
2021/05/29 10:13:08;;;;;;;3.10;1.90;;;;;;;;;;5021734;28;20179;-77
2021/05/29 10:15:34;;;;;;;1.88;1.77;;;;;;;;;;5032635;28;20223;-76
2021/05/29 10:18:02;;;;;;;2.37;1.90;;;;;;;;;;5021287;28;20205;-76
2021/05/29 10:20:29;;;;;;;2.75;2.10;;;;;;;;;;5023387;28;20407;-76
2021/05/29 10:22:56;;;;;;;2.45;2.03;;;;;;;;;;5040574;28;20198;-76
2021/05/29 10:25:22;;;;;;;1.95;1.85;;;;;;;;;;5021662;28;20201;-76
2021/05/29 10:27:52;;;;;;;2.83;1.92;;;;;;;;;;5021492;28;20193;-76
2021/05/29 10:30:22;;;;;;;1.92;1.83;;;;;;;;;;5021159;28;20639;-76
2021/05/29 10:33:07;;;;;;;1.70;1.60;;;;;;;;;;5021697;28;20211;-76
2021/05/29 10:35:38;;;;;;;4.45;1.70;;;;;;;;;;5015835;28;20486;-77
2021/05/29 10:38:04;;;;;;;1.83;1.40;;;;;;;;;;5040102;28;20182;-75
2021/05/29 10:40:35;;;;;;;2.97;2.10;;;;;;;;;;5036368;28;20392;-78
2021/05/29 10:43:08;;;;;;;2.10;1.67;;;;;;;;;;5031133;28;20210;-76
2021/05/29 10:45:38;;;;;;;1.83;1.73;;;;;;;;;;5020909;28;20419;-77
2021/05/29 10:48:14;;;;;;;3.53;1.70;;;;;;;;;;5021433;28;20486;-77
2021/05/29 10:53:43;;;;;;;3.50;2.67;;;;;;;;;;5021921;28;20445;-75
2021/05/29 10:56:24;;;;;;;4.57;2.23;;;;;;;;;;5023602;28;20427;-77
2021/05/29 10:59:13;;;;;;;1.70;1.60;;;;;;;;;;5023282;28;20509;-77
2021/05/29 11:01:42;;;;;;;4.30;2.30;;;;;;;;;;5021538;28;20414;-79
2021/05/29 11:04:18;;;;;;;3.13;2.10;;;;;;;;;;5021049;28;20437;-79
2021/05/29 11:06:54;;;;;;;1.80;1.70;;;;;;;;;;5019682;28;20994;-74
2021/05/29 11:09:26;;;;;;;2.80;1.80;;;;;;;;;;5034609;28;20441;-76
2021/05/29 11:11:53;;;;;;;2.87;1.90;;;;;;;;;;5033416;28;20505;-76
2021/05/29 11:14:22;;;;;;;2.13;1.40;;;;;;;;;;5037366;28;20447;-76
2021/05/29 11:16:48;;;;;;;2.60;1.90;;;;;;;;;;5020267;28;20425;-76
2021/05/29 11:19:15;;;;;;;6.30;1.50;;;;;;;;;;5020798;28;20449;-82
2021/05/29 11:21:59;;;;;;;4.83;2.27;;;;;;;;;;5030228;28;20421;-79
2021/05/29 11:24:26;;;;;;;1.73;1.63;;;;;;;;;;5014632;28;20447;-76
2021/05/29 11:26:52;;;;;;;2.23;2.03;;;;;;;;;;5020285;28;20414;-77
2021/05/29 11:29:19;;;;;;;4.40;2.10;;;;;;;;;;5037616;28;20472;-76
2021/05/29 11:31:46;;;;;;;3.23;2.70;;;;;;;;;;5021837;28;20493;-78
2021/05/29 11:34:12;;;;;;;1.93;1.73;;;;;;;;;;5020019;28;20452;-76
2021/05/29 11:36:40;;;;;;;2.03;1.90;;;;;;;;;;5030341;28;20794;-76
2021/05/29 11:39:10;;;;;;;4.77;3.17;;;;;;;;;;5019833;28;20444;-76
2021/05/29 11:41:37;;;;;;;2.47;2.27;;;;;;;;;;5034815;28;20464;-76
2021/05/29 11:44:05;;;;;;;2.80;1.77;;;;;;;;;;5021331;28;20429;-75
2021/05/29 11:46:31;;;;;;;2.33;2.13;;;;;;;;;;5021916;28;20419;-77
2021/05/29 11:48:59;;;;;;;2.33;2.23;;;;;;;;;;5021302;28;20436;-79
2021/05/29 11:51:26;;;;;;;1.93;1.83;;;;;;;;;;5020530;28;20445;-77
2021/05/29 11:53:56;;;;;;;2.23;1.60;;;;;;;;;;5019638;28;20482;-78
2021/05/29 11:56:43;;;;;;;2.40;1.87;;;;;;;;;;5021247;28;20401;-77
2021/05/29 11:59:10;;;;;;;2.40;1.87;;;;;;;;;;5017139;28;20433;-76
2021/05/29 12:01:37;;;;;;;2.67;2.20;;;;;;;;;;5036307;28;20417;-76
2021/05/29 12:04:04;;;;;;;1.80;1.60;;;;;;;;;;5021733;28;20492;-77
2021/05/29 12:06:37;;;;;;;2.43;1.77;;;;;;;;;;5020147;28;20412;-78
2021/05/29 12:09:05;;;;;;;1.60;1.50;;;;;;;;;;5020170;28;20436;-79
2021/05/29 12:11:32;;;;;;;3.10;1.40;;;;;;;;;;5030075;28;20468;-76
2021/05/29 12:14:03;;;;;;;1.73;1.63;;;;;;;;;;5023780;28;21117;-78
2021/05/29 12:16:30;;;;;;;1.93;1.53;;;;;;;;;;5019902;28;20432;-79
2021/05/29 12:18:56;;;;;;;2.30;1.73;;;;;;;;;;5029296;28;20464;-78
2021/05/29 12:21:22;;;;;;;2.87;2.30;;;;;;;;;;5019662;28;20441;-75
2021/05/29 12:23:59;;;;;;;2.17;1.97;;;;;;;;;;5018743;28;20474;-78
2021/05/29 12:26:27;;;;;;;1.83;1.50;;;;;;;;;;5019788;28;20447;-78
2021/05/29 12:28:53;;;;;;;1.90;1.80;;;;;;;;;;5036981;28;20449;-79
2021/05/29 12:31:22;;;;;;;2.43;1.67;;;;;;;;;;5019744;28;20438;-78
2021/05/29 12:33:48;;;;;;;4.13;2.73;;;;;;;;;;5019817;28;20436;-81
2021/05/29 12:36:15;;;;;;;1.90;1.80;;;;;;;;;;5019084;28;20445;-75
2021/05/29 12:38:51;;;;;;;1.83;1.73;;;;;;;;;;5019942;28;20966;-77
2021/05/29 12:41:21;;;;;;;2.67;1.47;;;;;;;;;;5021984;28;20930;-78
2021/05/29 12:43:59;;;;;;;2.33;2.23;;;;;;;;;;5021779;28;20457;-78
2021/05/29 12:46:26;;;;;;;1.70;1.60;;;;;;;;;;5029435;28;20441;-80
2021/05/29 12:49:05;;;;;;;1.87;1.53;;;;;;;;;;5020045;28;20468;-77
2021/05/29 12:51:49;;;;;;;1.73;1.63;;;;;;;;;;5020752;28;20433;-77
2021/05/29 12:54:15;;;;;;;1.70;1.60;;;;;;;;;;5017492;28;20437;-77
2021/05/29 12:56:55;;;;;;;3.97;1.70;;;;;;;;;;5019667;28;20492;-79
2021/05/29 12:59:26;;;;;;;1.80;1.70;;;;;;;;;;5023927;28;20997;-78
2021/05/29 13:02:01;;;;;;;2.03;1.80;;;;;;;;;;5040928;28;20487;-79
2021/05/29 13:07:36;;;;;;;2.10;2.00;;;;;;;;;;5019864;28;20441;-79
2021/05/29 13:12:36;;;;;;;2.57;2.37;;;;;;;;;;5016287;28;20529;-78
2021/05/29 13:15:15;;;;;;;1.83;1.73;;;;;;;;;;5025217;28;20473;-79
2021/05/29 13:17:41;;;;;;;2.63;1.90;;;;;;;;;;5016911;28;20484;-78
2021/05/29 13:20:20;;;;;;;2.00;1.70;;;;;;;;;;5006607;28;20443;-77
2021/05/29 13:22:46;;;;;;;2.30;1.53;;;;;;;;;;5009365;28;20474;-79
2021/05/29 13:25:21;;;;;;;2.30;1.50;;;;;;;;;;5017636;28;20433;-81
2021/05/29 13:27:49;;;;;;;1.47;1.37;;;;;;;;;;5014365;28;20543;-78
2021/05/29 13:30:18;;;;;;;2.60;2.00;;;;;;;;;;5017999;28;20464;-79
2021/05/29 13:32:49;;;;;;;2.10;1.90;;;;;;;;;;5033421;28;20438;-81
2021/05/29 13:35:15;;;;;;;3.23;2.97;;;;;;;;;;5019599;28;20433;-78
2021/05/29 13:37:41;;;;;;;1.80;1.70;;;;;;;;;;5014310;28;20500;-79
2021/05/29 13:40:08;;;;;;;2.73;2.53;;;;;;;;;;5009804;28;20444;-79
2021/05/29 13:42:34;;;;;;;3.07;2.20;;;;;;;;;;5014630;28;20480;-79
2021/05/29 13:45:00;;;;;;;4.30;2.07;;;;;;;;;;5021866;28;20988;-80
2021/05/29 13:47:26;;;;;;;2.37;1.53;;;;;;;;;;5022416;28;20441;-77
2021/05/29 13:49:52;;;;;;;10.73;3.80;;;;;;;;;;5025748;28;20456;-80
2021/05/29 13:52:18;;;;;;;1.70;1.60;;;;;;;;;;5023639;28;20439;-78
2021/05/29 13:54:44;;;;;;;1.70;1.60;;;;;;;;;;5032014;28;20446;-80
2021/05/29 13:57:10;;;;;;;1.70;1.60;;;;;;;;;;5021279;28;20445;-80
2021/05/29 13:59:38;;;;;;;4.23;2.03;;;;;;;;;;5022071;28;20448;-81
2021/05/29 14:02:04;;;;;;;1.90;1.63;;;;;;;;;;5040769;28;20448;-79
2021/05/29 14:04:30;;;;;;;2.40;2.20;;;;;;;;;;5022529;28;20409;-78
2021/05/29 14:06:57;;;;;;;2.23;1.93;;;;;;;;;;5019214;28;20451;-81
2021/05/29 14:09:24;;;;;;;1.90;1.80;;;;;;;;;;5015982;28;20440;-81
2021/05/29 14:11:51;;;;;;;3.93;1.67;;;;;;;;;;5036425;28;20502;-78
2021/05/29 14:14:17;;;;;;;1.80;1.70;;;;;;;;;;5032955;28;20442;-79
2021/05/29 14:16:43;;;;;;;1.70;1.53;;;;;;;;;;5017512;28;20390;-80
2021/05/29 14:19:09;;;;;;;2.27;1.53;;;;;;;;;;5021686;28;20400;-79
2021/05/29 14:21:36;;;;;;;2.37;1.60;;;;;;;;;;5017766;28;20413;-80
2021/05/29 14:24:02;;;;;;;1.77;1.67;;;;;;;;;;5020693;28;20402;-79
2021/05/29 14:26:31;;;;;;;1.80;1.60;;;;;;;;;;5032999;28;20439;-78
2021/05/29 14:29:02;;;;;;;1.67;1.47;;;;;;;;;;5016783;28;20873;-78
2021/05/29 14:31:29;;;;;;;1.70;1.60;;;;;;;;;;5018224;28;20510;-77
2021/05/29 14:33:55;;;;;;;2.03;1.70;;;;;;;;;;5034857;28;20459;-81
2021/05/29 14:36:22;;;;;;;2.67;1.60;;;;;;;;;;5034616;28;20475;-78
2021/05/29 14:38:49;;;;;;;1.67;1.57;;;;;;;;;;5015441;28;20420;-80
2021/05/29 14:41:16;;;;;;;2.43;1.80;;;;;;;;;;5033272;28;20396;-80
2021/05/29 14:43:42;;;;;;;4.30;2.13;;;;;;;;;;5018836;28;20435;-79
2021/05/29 14:46:08;;;;;;;1.57;1.47;;;;;;;;;;5016791;28;20516;-79
2021/05/29 14:48:35;;;;;;;2.03;1.83;;;;;;;;;;5020523;28;20420;-81
2021/05/29 14:53:42;;;;;;;4.23;1.50;;;;;;;;;;5018683;28;20450;-79
2021/05/29 14:56:08;;;;;;;1.70;1.60;;;;;;;;;;5015179;28;20460;-77
2021/05/29 14:58:34;;;;;;;1.57;1.40;;;;;;;;;;5019888;28;20412;-78
2021/05/29 15:01:00;;;;;;;2.13;1.80;;;;;;;;;;5021894;28;20472;-79
2021/05/29 15:03:27;;;;;;;1.67;1.57;;;;;;;;;;5021296;28;20440;-78
2021/05/29 15:05:53;;;;;;;1.87;1.77;;;;;;;;;;5020634;28;20430;-81
2021/05/29 15:08:19;;;;;;;2.80;1.87;;;;;;;;;;5033523;28;20433;-78